sensor_id;sensor_type;location;lat;lon;timestamp;temperature;humidity
58469;DHT22;44257;44.804;10.220;2022-07-23T00:01:40;26.30;64.90
58469;DHT22;44257;44.804;10.220;2022-07-23T00:04:06;26.30;64.20
58469;DHT22;44257;44.804;10.220;2022-07-23T00:06:32;26.30;65.00
58469;DHT22;44257;44.804;10.220;2022-07-23T00:09:00;26.40;64.30
58469;DHT22;44257;44.804;10.220;2022-07-23T00:11:26;26.30;65.10
58469;DHT22;44257;44.804;10.220;2022-07-23T00:13:52;26.30;64.30
58469;DHT22;44257;44.804;10.220;2022-07-23T00:16:20;26.40;64.00
58469;DHT22;44257;44.804;10.220;2022-07-23T00:18:46;26.40;64.10
58469;DHT22;44257;44.804;10.220;2022-07-23T00:21:12;26.40;64.10
58469;DHT22;44257;44.804;10.220;2022-07-23T00:23:37;26.30;65.40
58469;DHT22;44257;44.804;10.220;2022-07-23T00:26:04;26.30;65.60
58469;DHT22;44257;44.804;10.220;2022-07-23T00:28:30;26.20;65.90
58469;DHT22;44257;44.804;10.220;2022-07-23T00:30:56;26.10;66.30
58469;DHT22;44257;44.804;10.220;2022-07-23T00:33:22;26.10;66.60
58469;DHT22;44257;44.804;10.220;2022-07-23T00:35:48;25.90;66.30
58469;DHT22;44257;44.804;10.220;2022-07-23T00:38:14;25.80;66.80
58469;DHT22;44257;44.804;10.220;2022-07-23T00:40:40;25.70;67.30
58469;DHT22;44257;44.804;10.220;2022-07-23T00:43:06;25.70;68.10
58469;DHT22;44257;44.804;10.220;2022-07-23T00:45:32;25.80;67.50
58469;DHT22;44257;44.804;10.220;2022-07-23T00:47:59;25.90;68.00
58469;DHT22;44257;44.804;10.220;2022-07-23T00:50:25;26.00;67.50
58469;DHT22;44257;44.804;10.220;2022-07-23T00:52:53;25.90;67.20
58469;DHT22;44257;44.804;10.220;2022-07-23T00:55:19;25.90;67.10
58469;DHT22;44257;44.804;10.220;2022-07-23T00:57:45;25.90;66.50
58469;DHT22;44257;44.804;10.220;2022-07-23T01:00:13;25.90;66.90
58469;DHT22;44257;44.804;10.220;2022-07-23T01:02:39;25.80;66.60
58469;DHT22;44257;44.804;10.220;2022-07-23T01:05:06;25.80;65.50
58469;DHT22;44257;44.804;10.220;2022-07-23T01:07:33;25.90;65.20
58469;DHT22;44257;44.804;10.220;2022-07-23T01:09:59;25.90;65.00
58469;DHT22;44257;44.804;10.220;2022-07-23T01:12:25;25.90;64.20
58469;DHT22;44257;44.804;10.220;2022-07-23T01:14:55;26.00;64.30
58469;DHT22;44257;44.804;10.220;2022-07-23T01:17:28;26.00;63.00
58469;DHT22;44257;44.804;10.220;2022-07-23T01:19:54;26.10;63.50
58469;DHT22;44257;44.804;10.220;2022-07-23T01:22:20;26.10;63.30
58469;DHT22;44257;44.804;10.220;2022-07-23T01:24:46;26.10;63.50
58469;DHT22;44257;44.804;10.220;2022-07-23T01:27:12;26.10;63.40
58469;DHT22;44257;44.804;10.220;2022-07-23T01:29:39;26.10;62.10
58469;DHT22;44257;44.804;10.220;2022-07-23T01:32:17;26.00;62.60
58469;DHT22;44257;44.804;10.220;2022-07-23T01:34:43;26.00;63.40
58469;DHT22;44257;44.804;10.220;2022-07-23T01:37:11;26.00;63.70
58469;DHT22;44257;44.804;10.220;2022-07-23T01:39:37;25.90;63.10
58469;DHT22;44257;44.804;10.220;2022-07-23T01:42:03;25.90;63.00
58469;DHT22;44257;44.804;10.220;2022-07-23T01:44:30;25.90;63.00
58469;DHT22;44257;44.804;10.220;2022-07-23T01:46:57;25.90;63.60
58469;DHT22;44257;44.804;10.220;2022-07-23T01:49:22;25.80;63.50
58469;DHT22;44257;44.804;10.220;2022-07-23T01:51:52;25.80;63.10
58469;DHT22;44257;44.804;10.220;2022-07-23T01:54:39;25.70;62.90
58469;DHT22;44257;44.804;10.220;2022-07-23T01:57:07;25.70;62.60
58469;DHT22;44257;44.804;10.220;2022-07-23T01:59:33;25.70;62.50
58469;DHT22;44257;44.804;10.220;2022-07-23T02:02:00;25.60;62.80
58469;DHT22;44257;44.804;10.220;2022-07-23T02:04:27;25.40;62.30
58469;DHT22;44257;44.804;10.220;2022-07-23T02:06:54;25.40;62.80
58469;DHT22;44257;44.804;10.220;2022-07-23T02:09:20;25.30;62.90
58469;DHT22;44257;44.804;10.220;2022-07-23T02:11:46;25.30;63.90
58469;DHT22;44257;44.804;10.220;2022-07-23T02:14:12;25.20;61.80
58469;DHT22;44257;44.804;10.220;2022-07-23T02:16:39;25.10;61.90
58469;DHT22;44257;44.804;10.220;2022-07-23T02:19:05;24.90;62.90
58469;DHT22;44257;44.804;10.220;2022-07-23T02:21:31;24.80;62.50
58469;DHT22;44257;44.804;10.220;2022-07-23T02:23:56;24.70;62.00
58469;DHT22;44257;44.804;10.220;2022-07-23T02:26:22;24.70;62.30
58469;DHT22;44257;44.804;10.220;2022-07-23T02:28:51;24.60;63.00
58469;DHT22;44257;44.804;10.220;2022-07-23T02:31:19;24.50;63.90
58469;DHT22;44257;44.804;10.220;2022-07-23T02:33:45;24.40;64.50
58469;DHT22;44257;44.804;10.220;2022-07-23T02:36:11;24.30;64.30
58469;DHT22;44257;44.804;10.220;2022-07-23T02:38:37;24.30;63.60
58469;DHT22;44257;44.804;10.220;2022-07-23T02:41:04;24.20;63.60
58469;DHT22;44257;44.804;10.220;2022-07-23T02:43:31;24.20;65.20
58469;DHT22;44257;44.804;10.220;2022-07-23T02:45:56;24.30;65.10
58469;DHT22;44257;44.804;10.220;2022-07-23T02:48:24;24.30;65.00
58469;DHT22;44257;44.804;10.220;2022-07-23T02:50:50;24.20;65.00
58469;DHT22;44257;44.804;10.220;2022-07-23T02:53:22;24.20;64.60
58469;DHT22;44257;44.804;10.220;2022-07-23T02:55:48;24.20;65.00
58469;DHT22;44257;44.804;10.220;2022-07-23T02:58:14;24.20;65.00
58469;DHT22;44257;44.804;10.220;2022-07-23T03:00:39;24.20;65.50
58469;DHT22;44257;44.804;10.220;2022-07-23T03:03:05;24.10;66.20
58469;DHT22;44257;44.804;10.220;2022-07-23T03:05:33;24.00;65.90
58469;DHT22;44257;44.804;10.220;2022-07-23T03:07:59;24.00;67.00
58469;DHT22;44257;44.804;10.220;2022-07-23T03:10:25;23.90;67.30
58469;DHT22;44257;44.804;10.220;2022-07-23T03:12:51;23.80;67.60
58469;DHT22;44257;44.804;10.220;2022-07-23T03:15:19;23.70;69.50
58469;DHT22;44257;44.804;10.220;2022-07-23T03:17:45;23.60;70.10
58469;DHT22;44257;44.804;10.220;2022-07-23T03:20:12;23.50;70.90
58469;DHT22;44257;44.804;10.220;2022-07-23T03:22:38;23.40;71.90
58469;DHT22;44257;44.804;10.220;2022-07-23T03:25:05;23.30;70.90
58469;DHT22;44257;44.804;10.220;2022-07-23T03:27:34;23.20;69.70
58469;DHT22;44257;44.804;10.220;2022-07-23T03:30:01;23.20;69.50
58469;DHT22;44257;44.804;10.220;2022-07-23T03:32:27;23.20;67.50
58469;DHT22;44257;44.804;10.220;2022-07-23T03:34:53;23.30;67.10
58469;DHT22;44257;44.804;10.220;2022-07-23T03:37:19;23.30;67.00
58469;DHT22;44257;44.804;10.220;2022-07-23T03:39:46;23.30;66.30
58469;DHT22;44257;44.804;10.220;2022-07-23T03:42:12;23.40;66.10
58469;DHT22;44257;44.804;10.220;2022-07-23T03:44:38;23.50;65.60
58469;DHT22;44257;44.804;10.220;2022-07-23T03:47:05;23.50;65.40
58469;DHT22;44257;44.804;10.220;2022-07-23T03:49:32;23.60;65.40
58469;DHT22;44257;44.804;10.220;2022-07-23T03:51:59;23.60;65.00
58469;DHT22;44257;44.804;10.220;2022-07-23T03:54:25;23.60;65.40
58469;DHT22;44257;44.804;10.220;2022-07-23T03:56:51;23.60;64.80
58469;DHT22;44257;44.804;10.220;2022-07-23T03:59:17;23.70;63.90
58469;DHT22;44257;44.804;10.220;2022-07-23T04:01:43;23.80;62.50
58469;DHT22;44257;44.804;10.220;2022-07-23T04:04:10;23.90;62.20
58469;DHT22;44257;44.804;10.220;2022-07-23T04:06:38;24.00;61.00
58469;DHT22;44257;44.804;10.220;2022-07-23T04:09:04;24.10;60.40
58469;DHT22;44257;44.804;10.220;2022-07-23T04:11:31;24.30;60.00
58469;DHT22;44257;44.804;10.220;2022-07-23T04:13:57;24.30;59.50
58469;DHT22;44257;44.804;10.220;2022-07-23T04:16:23;24.40;59.50
58469;DHT22;44257;44.804;10.220;2022-07-23T04:18:49;24.40;59.10
58469;DHT22;44257;44.804;10.220;2022-07-23T04:21:18;24.50;59.10
58469;DHT22;44257;44.804;10.220;2022-07-23T04:23:45;24.50;58.80
58469;DHT22;44257;44.804;10.220;2022-07-23T04:26:12;24.60;58.90
58469;DHT22;44257;44.804;10.220;2022-07-23T04:28:38;24.60;58.60
58469;DHT22;44257;44.804;10.220;2022-07-23T04:31:04;24.80;59.70
58469;DHT22;44257;44.804;10.220;2022-07-23T04:33:33;24.80;59.30
58469;DHT22;44257;44.804;10.220;2022-07-23T04:36:03;24.80;59.70
58469;DHT22;44257;44.804;10.220;2022-07-23T04:38:29;24.80;59.80
58469;DHT22;44257;44.804;10.220;2022-07-23T04:40:59;24.90;60.00
58469;DHT22;44257;44.804;10.220;2022-07-23T04:43:25;24.90;60.30
58469;DHT22;44257;44.804;10.220;2022-07-23T04:45:51;24.90;60.00
58469;DHT22;44257;44.804;10.220;2022-07-23T04:48:17;25.00;59.70
58469;DHT22;44257;44.804;10.220;2022-07-23T04:50:42;25.10;59.70
58469;DHT22;44257;44.804;10.220;2022-07-23T04:53:23;25.10;58.80
58469;DHT22;44257;44.804;10.220;2022-07-23T04:55:52;25.20;58.20
58469;DHT22;44257;44.804;10.220;2022-07-23T04:58:18;25.30;57.40
58469;DHT22;44257;44.804;10.220;2022-07-23T05:00:43;25.40;57.70
58469;DHT22;44257;44.804;10.220;2022-07-23T05:03:10;25.50;57.90
58469;DHT22;44257;44.804;10.220;2022-07-23T05:05:36;25.60;57.70
58469;DHT22;44257;44.804;10.220;2022-07-23T05:08:09;25.60;57.60
58469;DHT22;44257;44.804;10.220;2022-07-23T05:10:38;25.70;57.70
58469;DHT22;44257;44.804;10.220;2022-07-23T05:13:03;25.80;57.40
58469;DHT22;44257;44.804;10.220;2022-07-23T05:15:29;26.00;56.50
58469;DHT22;44257;44.804;10.220;2022-07-23T05:17:55;26.40;56.70
58469;DHT22;44257;44.804;10.220;2022-07-23T05:20:21;26.90;56.00
58469;DHT22;44257;44.804;10.220;2022-07-23T05:22:47;27.50;56.40
58469;DHT22;44257;44.804;10.220;2022-07-23T05:25:13;28.00;53.20
58469;DHT22;44257;44.804;10.220;2022-07-23T05:27:39;28.50;51.70
58469;DHT22;44257;44.804;10.220;2022-07-23T05:30:06;29.00;51.70
58469;DHT22;44257;44.804;10.220;2022-07-23T05:32:35;29.50;50.90
58469;DHT22;44257;44.804;10.220;2022-07-23T05:35:11;29.80;50.00
58469;DHT22;44257;44.804;10.220;2022-07-23T05:37:40;30.10;49.70
58469;DHT22;44257;44.804;10.220;2022-07-23T05:40:08;30.50;49.90
58469;DHT22;44257;44.804;10.220;2022-07-23T05:42:35;30.90;51.10
58469;DHT22;44257;44.804;10.220;2022-07-23T05:45:03;31.20;48.60
58469;DHT22;44257;44.804;10.220;2022-07-23T05:47:42;31.40;47.60
58469;DHT22;44257;44.804;10.220;2022-07-23T05:50:12;31.40;47.60
58469;DHT22;44257;44.804;10.220;2022-07-23T05:52:44;31.40;48.00
58469;DHT22;44257;44.804;10.220;2022-07-23T05:55:31;31.60;48.60
58469;DHT22;44257;44.804;10.220;2022-07-23T05:57:59;32.00;47.40
58469;DHT22;44257;44.804;10.220;2022-07-23T06:00:27;32.20;49.70
58469;DHT22;44257;44.804;10.220;2022-07-23T06:02:55;32.50;50.00
58469;DHT22;44257;44.804;10.220;2022-07-23T06:05:21;32.70;46.50
58469;DHT22;44257;44.804;10.220;2022-07-23T06:07:47;32.80;46.00
58469;DHT22;44257;44.804;10.220;2022-07-23T06:10:14;33.00;46.30
58469;DHT22;44257;44.804;10.220;2022-07-23T06:12:41;33.10;46.10
58469;DHT22;44257;44.804;10.220;2022-07-23T06:15:08;33.40;45.20
58469;DHT22;44257;44.804;10.220;2022-07-23T06:17:34;33.70;48.80
58469;DHT22;44257;44.804;10.220;2022-07-23T06:20:02;33.90;47.70
58469;DHT22;44257;44.804;10.220;2022-07-23T06:22:28;33.90;47.40
58469;DHT22;44257;44.804;10.220;2022-07-23T06:24:53;34.00;47.90
58469;DHT22;44257;44.804;10.220;2022-07-23T06:27:20;34.30;47.10
58469;DHT22;44257;44.804;10.220;2022-07-23T06:29:46;34.50;48.40
58469;DHT22;44257;44.804;10.220;2022-07-23T06:32:12;34.50;45.30
58469;DHT22;44257;44.804;10.220;2022-07-23T06:34:38;34.70;43.50
58469;DHT22;44257;44.804;10.220;2022-07-23T06:37:04;34.90;42.80
58469;DHT22;44257;44.804;10.220;2022-07-23T06:39:30;35.00;44.90
58469;DHT22;44257;44.804;10.220;2022-07-23T06:41:57;35.30;47.20
58469;DHT22;44257;44.804;10.220;2022-07-23T06:44:35;35.10;43.20
58469;DHT22;44257;44.804;10.220;2022-07-23T06:47:01;34.90;43.70
58469;DHT22;44257;44.804;10.220;2022-07-23T06:49:27;34.70;44.10
58469;DHT22;44257;44.804;10.220;2022-07-23T06:51:56;34.70;43.90
58469;DHT22;44257;44.804;10.220;2022-07-23T06:54:22;34.50;44.70
58469;DHT22;44257;44.804;10.220;2022-07-23T06:56:48;34.40;47.80
58469;DHT22;44257;44.804;10.220;2022-07-23T06:59:14;34.20;44.50
58469;DHT22;44257;44.804;10.220;2022-07-23T07:01:42;34.00;45.00
58469;DHT22;44257;44.804;10.220;2022-07-23T07:04:08;33.90;45.20
58469;DHT22;44257;44.804;10.220;2022-07-23T07:06:34;33.70;45.40
58469;DHT22;44257;44.804;10.220;2022-07-23T07:09:00;33.60;46.00
58469;DHT22;44257;44.804;10.220;2022-07-23T07:11:26;33.50;46.40
58469;DHT22;44257;44.804;10.220;2022-07-23T07:13:52;33.40;46.80
58469;DHT22;44257;44.804;10.220;2022-07-23T07:16:18;33.30;47.40
58469;DHT22;44257;44.804;10.220;2022-07-23T07:18:44;33.20;47.80
58469;DHT22;44257;44.804;10.220;2022-07-23T07:21:10;33.10;48.60
58469;DHT22;44257;44.804;10.220;2022-07-23T07:23:36;33.10;48.90
58469;DHT22;44257;44.804;10.220;2022-07-23T07:26:02;33.10;49.00
58469;DHT22;44257;44.804;10.220;2022-07-23T07:28:28;33.10;48.90
58469;DHT22;44257;44.804;10.220;2022-07-23T07:30:54;33.00;49.30
58469;DHT22;44257;44.804;10.220;2022-07-23T07:33:21;33.10;49.10
58469;DHT22;44257;44.804;10.220;2022-07-23T07:35:47;33.10;49.30
58469;DHT22;44257;44.804;10.220;2022-07-23T07:38:13;33.20;49.40
58469;DHT22;44257;44.804;10.220;2022-07-23T07:40:39;33.20;49.50
58469;DHT22;44257;44.804;10.220;2022-07-23T07:43:05;33.40;48.60
58469;DHT22;44257;44.804;10.220;2022-07-23T07:45:31;33.40;49.10
58469;DHT22;44257;44.804;10.220;2022-07-23T07:47:58;33.60;49.00
58469;DHT22;44257;44.804;10.220;2022-07-23T07:50:24;33.60;48.10
58469;DHT22;44257;44.804;10.220;2022-07-23T07:52:51;33.50;48.20
58469;DHT22;44257;44.804;10.220;2022-07-23T07:55:17;33.40;48.70
58469;DHT22;44257;44.804;10.220;2022-07-23T07:57:43;33.30;49.60
58469;DHT22;44257;44.804;10.220;2022-07-23T08:00:10;33.30;49.60
58469;DHT22;44257;44.804;10.220;2022-07-23T08:02:46;33.40;48.70
58469;DHT22;44257;44.804;10.220;2022-07-23T08:05:13;33.50;48.60
58469;DHT22;44257;44.804;10.220;2022-07-23T08:07:40;33.40;48.50
58469;DHT22;44257;44.804;10.220;2022-07-23T08:10:07;33.30;48.90
58469;DHT22;44257;44.804;10.220;2022-07-23T08:12:59;33.10;49.90
58469;DHT22;44257;44.804;10.220;2022-07-23T08:15:26;33.10;50.30
58469;DHT22;44257;44.804;10.220;2022-07-23T08:17:53;33.30;50.30
58469;DHT22;44257;44.804;10.220;2022-07-23T08:20:21;33.30;50.10
58469;DHT22;44257;44.804;10.220;2022-07-23T08:22:59;33.20;50.40
58469;DHT22;44257;44.804;10.220;2022-07-23T08:27:52;33.00;51.40
58469;DHT22;44257;44.804;10.220;2022-07-23T08:30:19;33.10;51.90
58469;DHT22;44257;44.804;10.220;2022-07-23T08:35:24;33.30;50.80
58469;DHT22;44257;44.804;10.220;2022-07-23T08:37:51;33.30;50.60
58469;DHT22;44257;44.804;10.220;2022-07-23T08:40:17;33.30;50.90
58469;DHT22;44257;44.804;10.220;2022-07-23T08:42:45;33.20;50.60
58469;DHT22;44257;44.804;10.220;2022-07-23T08:45:13;33.10;51.70
58469;DHT22;44257;44.804;10.220;2022-07-23T08:47:41;33.20;52.30
58469;DHT22;44257;44.804;10.220;2022-07-23T08:50:07;33.40;52.20
58469;DHT22;44257;44.804;10.220;2022-07-23T08:52:36;33.60;52.90
58469;DHT22;44257;44.804;10.220;2022-07-23T08:55:03;33.80;53.10
58469;DHT22;44257;44.804;10.220;2022-07-23T08:57:29;33.90;52.30
58469;DHT22;44257;44.804;10.220;2022-07-23T08:59:56;34.00;52.20
58469;DHT22;44257;44.804;10.220;2022-07-23T09:02:23;33.90;53.80
58469;DHT22;44257;44.804;10.220;2022-07-23T09:04:49;33.90;53.90
58469;DHT22;44257;44.804;10.220;2022-07-23T09:07:15;34.00;54.50
58469;DHT22;44257;44.804;10.220;2022-07-23T09:09:41;34.20;54.10
58469;DHT22;44257;44.804;10.220;2022-07-23T09:12:09;34.30;53.10
58469;DHT22;44257;44.804;10.220;2022-07-23T09:14:40;34.20;53.00
58469;DHT22;44257;44.804;10.220;2022-07-23T09:17:14;34.00;54.10
58469;DHT22;44257;44.804;10.220;2022-07-23T09:19:41;33.80;54.60
58469;DHT22;44257;44.804;10.220;2022-07-23T09:22:24;33.70;54.90
58469;DHT22;44257;44.804;10.220;2022-07-23T09:25:08;33.90;53.60
58469;DHT22;44257;44.804;10.220;2022-07-23T09:30:22;34.10;52.80
58469;DHT22;44257;44.804;10.220;2022-07-23T09:33:10;34.10;53.50
58469;DHT22;44257;44.804;10.220;2022-07-23T09:35:55;34.10;53.50
58469;DHT22;44257;44.804;10.220;2022-07-23T09:38:24;34.30;53.40
58469;DHT22;44257;44.804;10.220;2022-07-23T09:41:10;34.40;51.80
58469;DHT22;44257;44.804;10.220;2022-07-23T09:43:36;34.60;51.30
58469;DHT22;44257;44.804;10.220;2022-07-23T09:46:27;34.70;51.50
58469;DHT22;44257;44.804;10.220;2022-07-23T09:48:55;34.70;51.90
58469;DHT22;44257;44.804;10.220;2022-07-23T09:51:23;34.70;50.40
58469;DHT22;44257;44.804;10.220;2022-07-23T09:54:04;34.80;50.30
58469;DHT22;44257;44.804;10.220;2022-07-23T09:56:31;34.90;50.70
58469;DHT22;44257;44.804;10.220;2022-07-23T09:58:59;34.80;51.00
58469;DHT22;44257;44.804;10.220;2022-07-23T10:01:35;34.90;50.60
58469;DHT22;44257;44.804;10.220;2022-07-23T10:04:01;34.90;50.70
58469;DHT22;44257;44.804;10.220;2022-07-23T10:07:08;35.00;49.70
58469;DHT22;44257;44.804;10.220;2022-07-23T10:10:08;35.00;49.70
58469;DHT22;44257;44.804;10.220;2022-07-23T10:12:54;35.00;49.40
58469;DHT22;44257;44.804;10.220;2022-07-23T10:15:36;35.00;49.50
58469;DHT22;44257;44.804;10.220;2022-07-23T10:18:02;35.30;49.60
58469;DHT22;44257;44.804;10.220;2022-07-23T10:20:28;35.50;48.90
58469;DHT22;44257;44.804;10.220;2022-07-23T10:25:49;35.80;47.80
58469;DHT22;44257;44.804;10.220;2022-07-23T10:28:43;36.00;47.50
58469;DHT22;44257;44.804;10.220;2022-07-23T10:37:02;36.10;47.00
58469;DHT22;44257;44.804;10.220;2022-07-23T10:39:33;36.20;47.30
58469;DHT22;44257;44.804;10.220;2022-07-23T10:42:19;36.30;47.00
58469;DHT22;44257;44.804;10.220;2022-07-23T10:44:48;36.30;46.80
58469;DHT22;44257;44.804;10.220;2022-07-23T10:47:29;36.50;47.80
58469;DHT22;44257;44.804;10.220;2022-07-23T10:50:20;36.70;47.10
58469;DHT22;44257;44.804;10.220;2022-07-23T10:58:05;37.20;46.50
58469;DHT22;44257;44.804;10.220;2022-07-23T11:00:34;37.20;45.60
58469;DHT22;44257;44.804;10.220;2022-07-23T11:03:02;37.30;48.60
58469;DHT22;44257;44.804;10.220;2022-07-23T11:05:50;37.40;44.90
58469;DHT22;44257;44.804;10.220;2022-07-23T11:08:18;37.30;45.00
58469;DHT22;44257;44.804;10.220;2022-07-23T11:18:56;37.60;44.00
58469;DHT22;44257;44.804;10.220;2022-07-23T11:21:40;37.50;44.80
58469;DHT22;44257;44.804;10.220;2022-07-23T11:24:15;37.60;43.90
58469;DHT22;44257;44.804;10.220;2022-07-23T11:26:47;37.40;44.50
58469;DHT22;44257;44.804;10.220;2022-07-23T11:32:19;37.50;44.70
58469;DHT22;44257;44.804;10.220;2022-07-23T11:34:49;37.70;43.50
58469;DHT22;44257;44.804;10.220;2022-07-23T11:37:38;37.70;43.50
58469;DHT22;44257;44.804;10.220;2022-07-23T11:40:15;37.90;43.70
58469;DHT22;44257;44.804;10.220;2022-07-23T11:42:56;38.00;45.00
58469;DHT22;44257;44.804;10.220;2022-07-23T11:45:24;38.20;43.50
58469;DHT22;44257;44.804;10.220;2022-07-23T11:47:51;38.00;43.40
58469;DHT22;44257;44.804;10.220;2022-07-23T11:50:18;37.90;43.10
58469;DHT22;44257;44.804;10.220;2022-07-23T11:52:44;37.80;43.30
58469;DHT22;44257;44.804;10.220;2022-07-23T11:55:11;37.70;43.20
58469;DHT22;44257;44.804;10.220;2022-07-23T11:57:39;37.60;44.10
58469;DHT22;44257;44.804;10.220;2022-07-23T12:00:08;37.70;43.80
58469;DHT22;44257;44.804;10.220;2022-07-23T12:02:44;37.90;44.30
58469;DHT22;44257;44.804;10.220;2022-07-23T12:05:13;38.20;43.70
58469;DHT22;44257;44.804;10.220;2022-07-23T12:07:42;38.10;43.40
58469;DHT22;44257;44.804;10.220;2022-07-23T12:10:24;38.00;45.30
58469;DHT22;44257;44.804;10.220;2022-07-23T12:12:53;38.10;45.70
58469;DHT22;44257;44.804;10.220;2022-07-23T12:15:23;38.20;43.90
58469;DHT22;44257;44.804;10.220;2022-07-23T12:17:51;38.30;43.40
58469;DHT22;44257;44.804;10.220;2022-07-23T12:20:23;38.20;43.60
58469;DHT22;44257;44.804;10.220;2022-07-23T12:22:59;38.20;43.60
58469;DHT22;44257;44.804;10.220;2022-07-23T12:25:29;38.10;43.60
58469;DHT22;44257;44.804;10.220;2022-07-23T12:28:08;38.10;46.60
58469;DHT22;44257;44.804;10.220;2022-07-23T12:30:38;38.40;43.00
58469;DHT22;44257;44.804;10.220;2022-07-23T12:33:06;38.60;42.70
58469;DHT22;44257;44.804;10.220;2022-07-23T12:35:38;38.50;42.90
58469;DHT22;44257;44.804;10.220;2022-07-23T12:38:10;38.50;43.00
58469;DHT22;44257;44.804;10.220;2022-07-23T12:40:47;38.50;42.80
58469;DHT22;44257;44.804;10.220;2022-07-23T12:43:22;38.50;43.60
58469;DHT22;44257;44.804;10.220;2022-07-23T12:46:00;38.60;44.80
58469;DHT22;44257;44.804;10.220;2022-07-23T12:48:33;38.80;42.80
58469;DHT22;44257;44.804;10.220;2022-07-23T12:51:08;39.00;42.50
58469;DHT22;44257;44.804;10.220;2022-07-23T12:53:43;39.10;42.30
58469;DHT22;44257;44.804;10.220;2022-07-23T12:56:17;39.00;42.20
58469;DHT22;44257;44.804;10.220;2022-07-23T12:58:52;38.90;42.00
58469;DHT22;44257;44.804;10.220;2022-07-23T13:04:02;38.90;44.30
58469;DHT22;44257;44.804;10.220;2022-07-23T13:06:34;39.10;44.10
58469;DHT22;44257;44.804;10.220;2022-07-23T13:09:05;39.20;42.00
58469;DHT22;44257;44.804;10.220;2022-07-23T13:11:33;39.20;42.10
58469;DHT22;44257;44.804;10.220;2022-07-23T13:14:02;39.20;42.20
58469;DHT22;44257;44.804;10.220;2022-07-23T13:16:30;39.20;41.70
58469;DHT22;44257;44.804;10.220;2022-07-23T13:18:58;39.20;44.60
58469;DHT22;44257;44.804;10.220;2022-07-23T13:21:27;39.30;43.20
58469;DHT22;44257;44.804;10.220;2022-07-23T13:23:54;39.30;41.90
58469;DHT22;44257;44.804;10.220;2022-07-23T13:26:21;39.10;42.50
58469;DHT22;44257;44.804;10.220;2022-07-23T13:28:48;38.90;43.00
58469;DHT22;44257;44.804;10.220;2022-07-23T13:31:18;38.70;42.60
58469;DHT22;44257;44.804;10.220;2022-07-23T13:33:44;38.50;43.10
58469;DHT22;44257;44.804;10.220;2022-07-23T13:36:11;38.50;43.10
58469;DHT22;44257;44.804;10.220;2022-07-23T13:38:37;38.50;43.00
58469;DHT22;44257;44.804;10.220;2022-07-23T13:41:05;38.30;43.70
58469;DHT22;44257;44.804;10.220;2022-07-23T13:43:32;38.50;46.40
58469;DHT22;44257;44.804;10.220;2022-07-23T13:45:58;38.70;44.40
58469;DHT22;44257;44.804;10.220;2022-07-23T13:48:25;38.90;46.70
58469;DHT22;44257;44.804;10.220;2022-07-23T13:50:51;39.00;45.10
58469;DHT22;44257;44.804;10.220;2022-07-23T13:53:20;38.90;42.50
58469;DHT22;44257;44.804;10.220;2022-07-23T13:55:48;38.60;43.50
58469;DHT22;44257;44.804;10.220;2022-07-23T13:58:16;38.60;45.20
58469;DHT22;44257;44.804;10.220;2022-07-23T14:00:45;38.80;43.20
58469;DHT22;44257;44.804;10.220;2022-07-23T14:03:13;38.80;42.90
58469;DHT22;44257;44.804;10.220;2022-07-23T14:05:39;38.80;42.60
58469;DHT22;44257;44.804;10.220;2022-07-23T14:08:05;38.90;42.20
58469;DHT22;44257;44.804;10.220;2022-07-23T14:10:32;39.10;44.70
58469;DHT22;44257;44.804;10.220;2022-07-23T14:12:58;39.30;44.60
58469;DHT22;44257;44.804;10.220;2022-07-23T14:15:26;39.80;45.60
58469;DHT22;44257;44.804;10.220;2022-07-23T14:17:54;40.10;42.70
58469;DHT22;44257;44.804;10.220;2022-07-23T14:20:21;40.60;40.10
58469;DHT22;44257;44.804;10.220;2022-07-23T14:22:47;41.00;41.30
58469;DHT22;44257;44.804;10.220;2022-07-23T14:25:17;41.10;39.80
58469;DHT22;44257;44.804;10.220;2022-07-23T14:27:44;41.00;40.20
58469;DHT22;44257;44.804;10.220;2022-07-23T14:30:11;40.80;40.30
58469;DHT22;44257;44.804;10.220;2022-07-23T14:32:38;40.70;41.70
58469;DHT22;44257;44.804;10.220;2022-07-23T14:35:06;40.70;41.00
58469;DHT22;44257;44.804;10.220;2022-07-23T14:37:32;40.60;39.70
58469;DHT22;44257;44.804;10.220;2022-07-23T14:39:59;40.60;40.40
58469;DHT22;44257;44.804;10.220;2022-07-23T14:42:25;40.50;39.90
58469;DHT22;44257;44.804;10.220;2022-07-23T14:44:51;40.30;39.60
58469;DHT22;44257;44.804;10.220;2022-07-23T14:47:18;40.10;39.20
58469;DHT22;44257;44.804;10.220;2022-07-23T14:49:44;39.90;39.50
58469;DHT22;44257;44.804;10.220;2022-07-23T14:52:10;39.50;39.50
58469;DHT22;44257;44.804;10.220;2022-07-23T14:54:36;39.20;39.80
58469;DHT22;44257;44.804;10.220;2022-07-23T14:57:03;38.80;40.50
58469;DHT22;44257;44.804;10.220;2022-07-23T14:59:30;38.50;41.30
58469;DHT22;44257;44.804;10.220;2022-07-23T15:01:56;38.20;41.20
58469;DHT22;44257;44.804;10.220;2022-07-23T15:04:23;38.00;41.00
58469;DHT22;44257;44.804;10.220;2022-07-23T15:06:50;37.80;42.40
58469;DHT22;44257;44.804;10.220;2022-07-23T15:09:16;37.60;42.20
58469;DHT22;44257;44.804;10.220;2022-07-23T15:11:43;37.50;41.60
58469;DHT22;44257;44.804;10.220;2022-07-23T15:14:11;37.40;42.20
58469;DHT22;44257;44.804;10.220;2022-07-23T15:16:37;37.30;42.30
58469;DHT22;44257;44.804;10.220;2022-07-23T15:19:04;37.30;41.60
58469;DHT22;44257;44.804;10.220;2022-07-23T15:21:32;37.20;41.40
58469;DHT22;44257;44.804;10.220;2022-07-23T15:23:58;37.10;42.30
58469;DHT22;44257;44.804;10.220;2022-07-23T15:26:30;37.10;42.10
58469;DHT22;44257;44.804;10.220;2022-07-23T15:28:57;37.10;42.00
58469;DHT22;44257;44.804;10.220;2022-07-23T15:31:25;37.00;42.40
58469;DHT22;44257;44.804;10.220;2022-07-23T15:33:52;36.90;43.00
58469;DHT22;44257;44.804;10.220;2022-07-23T15:36:20;36.90;42.90
58469;DHT22;44257;44.804;10.220;2022-07-23T15:38:46;37.00;43.30
58469;DHT22;44257;44.804;10.220;2022-07-23T15:41:14;37.10;42.00
58469;DHT22;44257;44.804;10.220;2022-07-23T15:43:40;37.10;42.80
58469;DHT22;44257;44.804;10.220;2022-07-23T15:46:08;37.10;41.70
58469;DHT22;44257;44.804;10.220;2022-07-23T15:48:36;37.10;42.90
58469;DHT22;44257;44.804;10.220;2022-07-23T15:51:03;37.00;42.10
58469;DHT22;44257;44.804;10.220;2022-07-23T15:53:30;36.90;42.30
58469;DHT22;44257;44.804;10.220;2022-07-23T15:55:56;36.90;42.50
58469;DHT22;44257;44.804;10.220;2022-07-23T15:58:23;36.90;42.50
58469;DHT22;44257;44.804;10.220;2022-07-23T16:00:49;36.80;43.40